createdAt,value
2019-05-07T00:00:09.307Z,0.90
2019-05-07T00:02:40.108Z,0.90
2019-05-07T00:05:12.043Z,0.73
2019-05-07T00:07:42.734Z,0.67
2019-05-07T00:10:14.095Z,0.80
2019-05-07T00:12:44.968Z,0.80
2019-05-07T00:15:17.463Z,0.90
2019-05-07T00:17:48.156Z,0.70
2019-05-07T00:20:23.286Z,0.70
2019-05-07T00:22:53.895Z,0.80
2019-05-07T00:25:24.364Z,0.83
2019-05-07T00:27:54.700Z,0.93
2019-05-07T00:30:28.224Z,1.10
2019-05-07T00:32:58.824Z,0.80
2019-05-07T00:35:33.503Z,1.00
2019-05-07T00:38:07.979Z,1.00
2019-05-07T00:40:49.124Z,1.20
2019-05-07T00:43:22.781Z,0.90
2019-05-07T00:46:02.128Z,1.30
2019-05-07T00:48:32.819Z,1.10
2019-05-07T00:51:22.699Z,1.10
2019-05-07T00:53:53.234Z,1.30
2019-05-07T00:56:24.975Z,1.20
2019-05-07T00:58:55.323Z,1.20
2019-05-07T01:01:26.149Z,1.00
2019-05-07T01:03:59.696Z,1.27
2019-05-07T01:06:30.343Z,0.97
2019-05-07T01:09:03.020Z,0.90
2019-05-07T01:11:34.700Z,0.67
2019-05-07T01:14:06.447Z,1.00
2019-05-07T01:16:37.244Z,0.80
2019-05-07T01:19:12.384Z,0.70
2019-05-07T01:21:43.310Z,0.97
2019-05-07T01:24:14.956Z,1.00
2019-05-07T01:26:45.599Z,0.93
2019-05-07T01:29:19.722Z,1.73
2019-05-07T01:31:56.077Z,1.77
2019-05-07T01:34:35.190Z,1.40
2019-05-07T01:37:08.279Z,1.60
2019-05-07T01:39:38.803Z,2.37
2019-05-07T01:42:09.431Z,1.90
2019-05-07T01:44:41.865Z,2.03
2019-05-07T01:47:13.245Z,2.30
2019-05-07T01:49:44.699Z,2.20
2019-05-07T01:52:15.275Z,2.23
2019-05-07T01:54:47.470Z,2.07
2019-05-07T01:57:17.692Z,1.97
2019-05-07T01:59:48.132Z,1.67
2019-05-07T02:05:19.007Z,1.90
2019-05-07T02:07:54.500Z,1.90
2019-05-07T02:10:33.484Z,1.57
2019-05-07T02:13:03.824Z,2.10
2019-05-07T02:15:36.451Z,1.97
2019-05-07T02:18:07.843Z,1.60
2019-05-07T02:20:38.432Z,1.60
2019-05-07T02:23:09.023Z,1.60
2019-05-07T02:25:41.832Z,1.63
2019-05-07T02:28:12.829Z,1.43
2019-05-07T02:30:44.390Z,1.60
2019-05-07T02:33:16.254Z,1.40
2019-05-07T02:35:46.898Z,1.33
2019-05-07T02:38:36.323Z,1.33
2019-05-07T02:41:14.203Z,1.60
2019-05-07T02:43:43.805Z,1.53
2019-05-07T02:46:36.013Z,1.40
2019-05-07T02:49:29.211Z,1.60
2019-05-07T02:52:05.440Z,1.67
2019-05-07T02:55:03.759Z,1.60
2019-05-07T02:57:33.902Z,1.50
2019-05-07T03:00:05.607Z,1.30
2019-05-07T03:02:37.335Z,1.13
2019-05-07T03:05:07.975Z,1.70
2019-05-07T03:07:38.715Z,1.30
2019-05-07T03:10:09.137Z,1.20
2019-05-07T03:12:42.733Z,1.10
2019-05-07T03:15:13.208Z,1.47
2019-05-07T03:17:44.789Z,1.90
2019-05-07T03:20:23.186Z,1.20
2019-05-07T03:22:54.354Z,1.27
2019-05-07T03:25:34.732Z,1.07
2019-05-07T03:28:05.240Z,0.80
2019-05-07T03:30:56.175Z,0.93
2019-05-07T03:33:47.290Z,0.60
2019-05-07T03:36:17.247Z,0.40
2019-05-07T03:38:48.237Z,0.50
2019-05-07T03:41:22.858Z,0.50
2019-05-07T03:43:53.594Z,0.43
2019-05-07T03:46:25.051Z,0.50
2019-05-07T03:48:55.557Z,0.40
2019-05-07T03:51:26.296Z,0.50
2019-05-07T03:53:56.938Z,0.50
2019-05-07T03:56:27.544Z,0.50
2019-05-07T03:58:59.205Z,0.40
2019-05-07T04:01:29.623Z,0.47
2019-05-07T04:04:03.584Z,0.40
2019-05-07T04:06:33.322Z,0.50
2019-05-07T04:09:04.006Z,0.57
2019-05-07T04:11:34.786Z,0.33
2019-05-07T04:14:05.256Z,0.40
2019-05-07T04:16:37.513Z,0.40
2019-05-07T04:19:08.245Z,0.53
2019-05-07T04:21:39.183Z,0.40
2019-05-07T04:24:27.224Z,0.50
2019-05-07T04:27:06.528Z,0.40
2019-05-07T04:29:37.244Z,0.40
2019-05-07T04:32:08.507Z,0.50
2019-05-07T04:34:52.986Z,0.40
2019-05-07T04:37:25.926Z,0.60
2019-05-07T04:39:56.564Z,0.57
2019-05-07T04:42:29.865Z,0.63
2019-05-07T04:45:04.268Z,0.87
2019-05-07T04:47:42.615Z,0.60
2019-05-07T04:50:06.621Z,0.80
2019-05-07T04:52:37.577Z,0.83
2019-05-07T04:55:08.458Z,0.60
2019-05-07T04:57:39.048Z,0.60
2019-05-07T05:00:13.456Z,0.70
2019-05-07T05:03:04.457Z,0.50
2019-05-07T05:05:35.055Z,0.50
2019-05-07T05:08:05.605Z,0.50
2019-05-07T05:10:36.518Z,0.60
2019-05-07T05:13:07.216Z,0.50
2019-05-07T05:15:37.907Z,0.70
2019-05-07T05:18:08.575Z,0.73
2019-05-07T05:20:48.628Z,0.50
2019-05-07T05:23:28.180Z,0.47
2019-05-07T05:25:58.740Z,0.60
2019-05-07T05:28:29.244Z,0.50
2019-05-07T05:31:03.310Z,0.50
2019-05-07T05:33:33.294Z,0.40
2019-05-07T05:36:04.246Z,0.30
2019-05-07T05:38:35.762Z,0.30
2019-05-07T05:41:06.404Z,0.30
2019-05-07T05:43:55.313Z,0.50
2019-05-07T05:46:27.106Z,0.40
2019-05-07T05:48:57.669Z,0.90
2019-05-07T05:51:43.493Z,0.73
2019-05-07T05:54:37.636Z,0.30
2019-05-07T05:57:26.941Z,0.30
2019-05-07T06:00:22.408Z,0.30
2019-05-07T06:03:11.978Z,0.30
2019-05-07T06:06:13.409Z,0.40
2019-05-07T06:09:01.801Z,0.30
2019-05-07T06:11:48.949Z,0.30
2019-05-07T06:14:25.709Z,0.20
2019-05-07T06:17:12.970Z,0.30
2019-05-07T06:20:02.767Z,0.30
2019-05-07T06:22:57.264Z,0.20
2019-05-07T06:25:28.012Z,0.30
2019-05-07T06:27:58.516Z,0.30
2019-05-07T06:30:29.103Z,0.40
2019-05-07T06:32:59.718Z,0.40
2019-05-07T06:37:59.240Z,0.30
2019-05-07T06:41:03.591Z,0.30
2019-05-07T06:43:55.784Z,0.40
2019-05-07T06:46:26.427Z,0.30
2019-05-07T06:48:56.835Z,0.30
2019-05-07T06:51:27.481Z,0.40
2019-05-07T06:53:57.867Z,0.30
2019-05-07T06:56:28.359Z,0.40
2019-05-07T06:59:07.183Z,0.40
2019-05-07T07:02:05.546Z,0.40
2019-05-07T07:04:44.464Z,0.30
2019-05-07T07:07:37.318Z,0.30
2019-05-07T07:10:35.382Z,0.30
2019-05-07T07:13:05.812Z,0.30
2019-05-07T07:15:36.528Z,0.30
2019-05-07T07:18:07.297Z,0.30
2019-05-07T07:20:38.321Z,0.27
2019-05-07T07:23:11.796Z,0.30
2019-05-07T07:25:43.055Z,0.30
2019-05-07T07:28:13.724Z,0.30
2019-05-07T07:31:02.406Z,0.30
2019-05-07T07:33:35.639Z,0.30
2019-05-07T07:36:06.404Z,0.30
2019-05-07T07:38:37.027Z,0.30
2019-05-07T07:41:18.261Z,0.20
2019-05-07T07:43:52.588Z,0.20
2019-05-07T07:46:23.253Z,0.20
2019-05-07T07:49:06.589Z,0.30
2019-05-07T07:51:37.927Z,0.37
2019-05-07T07:53:58.527Z,0.30
2019-05-07T07:56:52.280Z,0.30
2019-05-07T07:59:34.745Z,0.30
2019-05-07T08:02:16.190Z,0.20
2019-05-07T08:04:46.893Z,0.40
2019-05-07T08:07:17.724Z,0.60
2019-05-07T08:09:48.562Z,0.50
2019-05-07T08:12:19.161Z,0.50
2019-05-07T08:14:51.768Z,0.50
2019-05-07T08:17:22.543Z,0.50
2019-05-07T08:19:53.299Z,0.40
2019-05-07T08:22:27.092Z,0.50
2019-05-07T08:24:58.675Z,0.30
2019-05-07T08:27:29.484Z,0.40
2019-05-07T08:30:00.016Z,0.20
2019-05-07T08:32:47.672Z,0.30
2019-05-07T08:35:37.043Z,0.53
2019-05-07T08:38:08.675Z,0.33
2019-05-07T08:40:44.487Z,0.70
2019-05-07T08:46:18.655Z,0.67
2019-05-07T08:48:50.270Z,0.50
2019-05-07T08:51:26.441Z,0.50
2019-05-07T08:54:06.084Z,0.50
2019-05-07T08:56:42.618Z,0.50
2019-05-07T08:59:13.219Z,0.40
2019-05-07T09:01:43.966Z,0.57
2019-05-07T09:04:14.592Z,0.70
2019-05-07T09:06:45.269Z,0.43
2019-05-07T09:09:15.879Z,0.50
2019-05-07T09:11:46.662Z,0.30
2019-05-07T09:19:25.617Z,0.40
2019-05-07T09:24:29.624Z,0.30
2019-05-07T09:27:22.293Z,0.37
2019-05-07T09:30:29.480Z,0.40
2019-05-07T09:33:14.983Z,0.30
2019-05-07T09:35:52.870Z,0.40
2019-05-07T09:38:23.615Z,0.30
2019-05-07T09:40:57.989Z,0.57
2019-05-07T09:43:35.429Z,0.30
2019-05-07T09:46:06.343Z,0.30
2019-05-07T09:48:37.087Z,0.43
2019-05-07T09:51:07.944Z,0.50
2019-05-07T09:53:42.534Z,0.60
2019-05-07T09:56:13.148Z,0.50
2019-05-07T10:01:19.763Z,0.47
2019-05-07T10:03:51.852Z,0.60
2019-05-07T10:06:28.249Z,0.30
2019-05-07T10:09:06.139Z,0.50
2019-05-07T10:11:52.430Z,0.50
2019-05-07T10:14:27.215Z,0.50
2019-05-07T10:17:15.964Z,0.50
2019-05-07T10:19:52.363Z,0.47
2019-05-07T10:22:23.120Z,0.40
2019-05-07T10:24:53.623Z,0.40
2019-05-07T10:27:26.251Z,0.50
2019-05-07T10:29:56.576Z,0.40
2019-05-07T10:32:27.443Z,0.60
2019-05-07T10:34:57.905Z,0.40
2019-05-07T10:37:28.764Z,0.40
2019-05-07T10:39:59.155Z,0.43
2019-05-07T10:42:29.551Z,0.60
2019-05-07T10:45:13.048Z,0.30
2019-05-07T10:47:53.543Z,0.60
2019-05-07T10:50:35.606Z,0.53
2019-05-07T10:58:11.595Z,0.80
2019-05-07T11:00:42.204Z,0.40
2019-05-07T11:03:14.405Z,0.50
2019-05-07T11:05:44.731Z,0.60
2019-05-07T11:08:15.289Z,0.40
2019-05-07T11:10:45.819Z,0.40
2019-05-07T11:13:16.679Z,0.30
2019-05-07T11:15:49.203Z,0.30
2019-05-07T11:18:28.145Z,0.60
2019-05-07T11:20:58.836Z,0.50
2019-05-07T11:23:32.735Z,0.37
2019-05-07T11:26:03.413Z,0.30
2019-05-07T11:28:34.311Z,0.50
2019-05-07T11:31:04.995Z,0.33
2019-05-07T11:33:35.968Z,0.50
2019-05-07T11:36:06.485Z,0.60
2019-05-07T11:38:36.984Z,0.40
2019-05-07T11:41:07.548Z,0.40
2019-05-07T11:44:01.959Z,0.30
2019-05-07T11:46:52.573Z,0.73
2019-05-07T11:49:28.615Z,0.30
2019-05-07T11:52:04.189Z,0.40
2019-05-07T11:57:17.899Z,0.50
2019-05-07T11:59:48.383Z,0.30
2019-05-07T12:05:04.808Z,0.40
2019-05-07T12:07:35.427Z,0.40
2019-05-07T12:10:06.411Z,0.33
2019-05-07T12:12:47.916Z,0.37
2019-05-07T12:15:18.685Z,0.33
2019-05-07T12:17:53.008Z,0.40
2019-05-07T12:20:23.851Z,0.30
2019-05-07T12:22:56.483Z,0.30
2019-05-07T12:25:34.771Z,0.30
2019-05-07T12:28:18.101Z,0.57
2019-05-07T12:31:12.440Z,0.30
2019-05-07T12:34:16.811Z,0.30
2019-05-07T12:36:47.658Z,0.30
2019-05-07T12:39:31.704Z,0.60
2019-05-07T12:41:57.957Z,0.40
2019-05-07T12:44:33.182Z,0.40
2019-05-07T12:47:05.873Z,0.30
2019-05-07T12:49:37.825Z,0.40
2019-05-07T12:55:47.105Z,0.40
2019-05-07T12:58:22.976Z,0.40
2019-05-07T13:01:02.645Z,0.40
2019-05-07T13:03:36.755Z,0.30
2019-05-07T13:06:11.678Z,0.30
2019-05-07T13:08:42.763Z,0.40
2019-05-07T13:11:17.180Z,0.67
2019-05-07T13:13:54.835Z,0.30
2019-05-07T13:16:33.900Z,0.50
2019-05-07T13:19:10.524Z,0.40
2019-05-07T13:22:24.872Z,0.30
2019-05-07T13:25:02.241Z,0.47
2019-05-07T13:27:34.325Z,0.60
2019-05-07T13:30:06.363Z,0.50
2019-05-07T13:32:37.306Z,0.40
2019-05-07T13:35:15.662Z,0.37
2019-05-07T13:37:51.817Z,0.50
2019-05-07T13:41:12.590Z,0.40
2019-05-07T13:44:12.447Z,0.30
2019-05-07T13:46:45.365Z,0.30
2019-05-07T13:49:32.353Z,0.40
2019-05-07T13:52:03.888Z,0.60
2019-05-07T13:54:44.111Z,0.23
2019-05-07T13:57:22.712Z,0.30
2019-05-07T13:59:59.030Z,0.30
2019-05-07T14:02:39.235Z,0.30
2019-05-07T14:05:14.063Z,0.40
2019-05-07T14:07:43.715Z,0.47
2019-05-07T14:10:23.853Z,0.30
2019-05-07T14:13:07.797Z,0.40
2019-05-07T14:15:36.521Z,0.43
2019-05-07T14:18:07.498Z,0.50
2019-05-07T14:20:38.255Z,0.30
2019-05-07T14:23:08.773Z,0.47
2019-05-07T14:25:39.299Z,0.40
2019-05-07T14:28:11.557Z,0.50
2019-05-07T14:30:47.351Z,0.47
2019-05-07T14:33:26.739Z,0.37
2019-05-07T14:36:11.968Z,0.40
2019-05-07T14:38:52.052Z,0.40
2019-05-07T14:41:25.699Z,0.40
2019-05-07T14:44:19.743Z,0.50
2019-05-07T14:46:55.949Z,0.60
2019-05-07T14:49:31.647Z,0.50
2019-05-07T14:52:02.765Z,0.43
2019-05-07T14:54:33.246Z,0.50
2019-05-07T14:57:05.771Z,0.80
2019-05-07T14:59:38.379Z,0.50
2019-05-07T15:02:11.903Z,0.80
2019-05-07T15:04:42.060Z,0.70
2019-05-07T15:07:12.684Z,0.50
2019-05-07T15:09:44.663Z,0.67
2019-05-07T15:12:19.208Z,0.87
2019-05-07T15:15:02.238Z,0.77
2019-05-07T15:17:46.468Z,0.53
2019-05-07T15:20:17.591Z,0.80
2019-05-07T15:23:02.558Z,0.70
2019-05-07T15:25:35.456Z,0.97
2019-05-07T15:28:12.236Z,0.80
2019-05-07T15:33:25.601Z,0.90
2019-05-07T15:35:56.191Z,0.70
2019-05-07T15:38:27.077Z,0.60
2019-05-07T15:40:57.836Z,0.80
2019-05-07T15:43:28.341Z,0.90
2019-05-07T15:45:59.046Z,0.87
2019-05-07T15:48:30.071Z,0.70
2019-05-07T15:51:00.528Z,0.70
2019-05-07T15:53:39.243Z,0.80
2019-05-07T15:56:09.676Z,1.13
2019-05-07T15:58:42.430Z,0.63
2019-05-07T16:01:12.929Z,0.60
2019-05-07T16:03:44.368Z,0.57
2019-05-07T16:06:21.466Z,1.10
2019-05-07T16:08:54.159Z,0.83
2019-05-07T16:11:24.524Z,1.53
2019-05-07T16:14:00.172Z,0.70
2019-05-07T16:16:30.662Z,0.77
2019-05-07T16:19:08.209Z,0.60
2019-05-07T16:21:38.872Z,0.70
2019-05-07T16:24:09.527Z,0.60
2019-05-07T16:26:41.731Z,0.90
2019-05-07T16:29:13.345Z,0.50
2019-05-07T16:31:48.556Z,0.60
2019-05-07T16:34:18.107Z,0.67
2019-05-07T16:36:48.844Z,0.50
2019-05-07T16:39:19.564Z,0.60
2019-05-07T16:41:49.867Z,0.67
2019-05-07T16:44:22.413Z,0.77
2019-05-07T16:46:53.556Z,0.70
2019-05-07T16:49:24.267Z,0.87
2019-05-07T16:51:54.735Z,0.87
2019-05-07T16:54:25.239Z,0.60
2019-05-07T16:57:13.688Z,0.60
2019-05-07T16:59:44.474Z,0.62
2019-05-07T17:02:20.300Z,0.60
2019-05-07T17:05:07.452Z,0.80
2019-05-07T17:10:19.399Z,0.57
2019-05-07T17:12:55.120Z,0.70
2019-05-07T17:15:30.604Z,0.60
2019-05-07T17:18:04.647Z,0.80
2019-05-07T17:20:35.399Z,0.70
2019-05-07T17:23:09.627Z,0.80
2019-05-07T17:25:40.115Z,0.80
2019-05-07T17:28:16.383Z,0.70
2019-05-07T17:30:53.019Z,0.90
2019-05-07T17:38:37.857Z,0.97
2019-05-07T17:41:13.020Z,0.90
2019-05-07T17:54:19.254Z,0.60
2019-05-07T17:56:49.783Z,0.73
2019-05-07T18:02:18.611Z,0.80
2019-05-07T18:04:52.215Z,0.70
2019-05-07T18:07:21.257Z,0.83
2019-05-07T18:09:52.632Z,0.60
2019-05-07T18:12:23.307Z,1.00
2019-05-07T18:14:53.651Z,0.70
2019-05-07T18:18:00.886Z,0.70
2019-05-07T18:20:32.796Z,0.80
2019-05-07T18:23:03.484Z,0.70
2019-05-07T18:25:34.004Z,0.90
2019-05-07T18:28:04.598Z,0.53
2019-05-07T18:30:35.047Z,1.00
2019-05-07T18:33:34.042Z,1.00
2019-05-07T18:36:04.414Z,0.70
2019-05-07T18:41:05.897Z,0.90
2019-05-07T18:43:36.413Z,0.60
2019-05-07T18:46:08.696Z,0.70
2019-05-07T18:48:39.502Z,0.83
2019-05-07T18:51:12.068Z,0.77
2019-05-07T18:53:42.612Z,0.80
2019-05-07T18:56:13.349Z,0.70
2019-05-07T18:58:43.699Z,0.70
2019-05-07T19:01:15.384Z,0.73
2019-05-07T19:03:45.821Z,0.97
2019-05-07T19:06:16.296Z,1.00
2019-05-07T19:08:47.487Z,0.57
2019-05-07T19:11:18.099Z,0.90
2019-05-07T19:13:48.582Z,0.97
2019-05-07T19:16:19.095Z,0.90
2019-05-07T19:18:49.628Z,0.90
2019-05-07T19:21:22.227Z,0.77
2019-05-07T19:23:52.979Z,0.90
2019-05-07T19:26:23.509Z,0.70
2019-05-07T19:28:53.925Z,0.70
2019-05-07T19:31:24.323Z,0.80
2019-05-07T19:33:54.803Z,0.97
2019-05-07T19:36:25.439Z,0.70
2019-05-07T19:38:56.786Z,0.80
2019-05-07T19:41:27.279Z,0.60
2019-05-07T19:43:57.734Z,0.80
2019-05-07T19:46:28.387Z,0.50
2019-05-07T19:48:58.806Z,0.60
2019-05-07T19:51:32.046Z,0.80
2019-05-07T19:54:02.499Z,0.80
2019-05-07T19:56:32.963Z,0.80
2019-05-07T19:59:03.439Z,0.93
2019-05-07T20:01:48.828Z,0.70
2019-05-07T20:04:19.199Z,0.63
2019-05-07T20:06:49.531Z,0.80
2019-05-07T20:09:27.583Z,0.60
2019-05-07T20:12:08.012Z,0.70
2019-05-07T20:14:37.406Z,1.00
2019-05-07T20:17:07.823Z,0.90
2019-05-07T20:19:38.422Z,0.70
2019-05-07T20:22:08.699Z,0.90
2019-05-07T20:24:39.211Z,0.80
2019-05-07T20:27:09.722Z,0.80
2019-05-07T20:29:42.657Z,1.10
2019-05-07T20:32:12.439Z,0.83
2019-05-07T20:34:46.019Z,0.87
2019-05-07T20:37:16.375Z,1.00
2019-05-07T20:39:47.279Z,0.80
2019-05-07T20:42:17.674Z,0.87
2019-05-07T20:44:48.307Z,1.00
2019-05-07T20:47:18.741Z,0.83
2019-05-07T20:49:49.039Z,0.80
2019-05-07T20:52:19.519Z,0.80
2019-05-07T20:55:04.647Z,0.73
2019-05-07T20:57:42.646Z,0.80
2019-05-07T21:00:22.741Z,0.63
2019-05-07T21:03:12.543Z,0.70
2019-05-07T21:05:43.109Z,0.70
2019-05-07T21:08:14.492Z,0.50
2019-05-07T21:10:45.247Z,0.80
2019-05-07T21:13:27.621Z,0.63
2019-05-07T21:15:48.995Z,0.80
2019-05-07T21:18:22.944Z,0.70
2019-05-07T21:23:23.091Z,0.67
2019-05-07T21:25:56.746Z,0.90
2019-05-07T21:28:27.431Z,1.30
2019-05-07T21:30:58.741Z,0.93
2019-05-07T21:33:29.340Z,0.97
2019-05-07T21:35:59.735Z,1.00
2019-05-07T21:38:32.743Z,0.73
2019-05-07T21:41:02.327Z,0.90
2019-05-07T21:43:33.063Z,0.90
2019-05-07T21:46:03.395Z,0.77
2019-05-07T21:48:33.828Z,1.00
2019-05-07T21:51:04.115Z,0.80
2019-05-07T21:53:40.084Z,0.80
2019-05-07T21:56:26.155Z,0.70
2019-05-07T21:59:03.226Z,0.93
2019-05-07T22:01:43.585Z,0.87
2019-05-07T22:04:13.605Z,0.73
2019-05-07T22:06:45.545Z,0.83
2019-05-07T22:09:16.660Z,0.70
2019-05-07T22:11:53.778Z,0.97
2019-05-07T22:14:25.204Z,0.73
2019-05-07T22:16:55.619Z,0.73
2019-05-07T22:19:26.135Z,0.90
2019-05-07T22:21:59.439Z,0.80
2019-05-07T22:24:30.154Z,1.20
2019-05-07T22:27:01.714Z,1.00
2019-05-07T22:29:33.766Z,1.00
2019-05-07T22:32:30.184Z,0.90
2019-05-07T22:35:12.483Z,1.10
2019-05-07T22:37:44.643Z,1.33
2019-05-07T22:40:16.659Z,0.80
2019-05-07T22:42:48.771Z,1.33
2019-05-07T22:45:19.843Z,0.93
2019-05-07T22:47:52.556Z,0.87
2019-05-07T22:50:23.344Z,1.00
2019-05-07T22:52:54.399Z,1.00
2019-05-07T22:58:04.246Z,1.07
2019-05-07T23:00:42.706Z,0.90
2019-05-07T23:03:14.252Z,0.83
2019-05-07T23:05:44.982Z,0.90
2019-05-07T23:08:16.750Z,1.13
2019-05-07T23:10:47.177Z,0.97
2019-05-07T23:13:17.916Z,0.93
2019-05-07T23:15:49.362Z,0.93
2019-05-07T23:18:19.754Z,1.33
2019-05-07T23:20:50.031Z,1.07
2019-05-07T23:23:22.144Z,1.10
2019-05-07T23:25:53.855Z,1.17
2019-05-07T23:28:24.327Z,1.00
2019-05-07T23:30:56.515Z,1.30
2019-05-07T23:33:27.924Z,0.80
2019-05-07T23:35:58.371Z,1.20
2019-05-07T23:38:28.957Z,1.30
2019-05-07T23:41:24.317Z,1.43
2019-05-07T23:44:12.484Z,0.93
2019-05-07T23:46:44.770Z,1.13
2019-05-07T23:49:15.349Z,1.30
2019-05-07T23:51:45.705Z,1.13
2019-05-07T23:54:16.322Z,1.20
2019-05-07T23:56:46.826Z,1.30
2019-05-07T23:59:17.488Z,0.93
